Kingston, Iowa
Current Conditions -  °F | °C
As of 10:53 AM on Tuesday 21 Oct 2014 (Local Time) from KBRL Reporting Station
Clear Clear  
Wind Chill: 55°   Ceiling: Unl
Heat Index: 55°   Visibility: 10mi
Dew Point: 45°   Wind: 10mph
Humidity: 69%   Direction: 70°ENE
Pressure: 30.18"   Gusts: NA
Location:  41.0155°N, 91.1055°W
Report Text: KBRL 211553Z AUTO 07009KT 10SM CLR 13/07 A3018 RMK AO2 SLP221 T01280072
Loading
Personal Weather Stations






























Interactive Weather Map
Tropical Storm Tracking
New forecast layout! Learn more

10-Day Weather Forecast

Advertisements
Track Severe Weather on mobile